createdAt,value
2018-09-01T00:01:19.416Z,2.9
2018-09-01T00:04:19.281Z,3
2018-09-01T00:07:20.091Z,7.4
2018-09-01T00:10:19.589Z,5.2
2018-09-01T00:13:19.257Z,4.1
2018-09-01T00:16:19.537Z,3.7
2018-09-01T00:19:19.778Z,3.2
2018-09-01T00:22:19.496Z,3
2018-09-01T00:25:19.383Z,3
2018-09-01T00:28:19.734Z,3.1
2018-09-01T00:31:19.848Z,3
2018-09-01T00:34:19.395Z,3.1
2018-09-01T00:37:20.114Z,3.1
2018-09-01T00:40:19.360Z,3
2018-09-01T00:43:19.530Z,3
2018-09-01T00:46:19.484Z,3.1
2018-09-01T00:49:19.577Z,3.2
2018-09-01T00:52:19.260Z,4.7
2018-09-01T00:55:19.352Z,3.9
2018-09-01T00:58:19.583Z,3.5
2018-09-01T01:01:19.362Z,3.4
2018-09-01T01:04:19.599Z,3.2
2018-09-01T01:07:19.361Z,3.1
2018-09-01T01:10:19.346Z,3.2
2018-09-01T01:13:19.397Z,3.1
2018-09-01T01:16:19.542Z,3.1
2018-09-01T01:19:19.424Z,3.1
2018-09-01T01:22:19.386Z,3.1
2018-09-01T01:25:19.758Z,3.2
2018-09-01T01:28:19.590Z,3.1
2018-09-01T01:31:19.469Z,3.1
2018-09-01T01:34:19.290Z,3.3
2018-09-01T01:37:19.552Z,3.2
2018-09-01T01:40:19.501Z,3.1
2018-09-01T01:43:19.400Z,3
2018-09-01T01:46:19.504Z,3.1
2018-09-01T01:49:19.346Z,3.1
2018-09-01T01:52:19.784Z,3
2018-09-01T01:55:19.454Z,3
2018-09-01T01:58:19.378Z,3
2018-09-01T02:01:19.545Z,3
2018-09-01T02:04:19.589Z,3.1
2018-09-01T02:07:19.346Z,3
2018-09-01T02:10:19.386Z,3
2018-09-01T02:13:19.471Z,3
2018-09-01T02:16:19.440Z,3
2018-09-01T02:19:19.433Z,3.1
2018-09-01T02:22:19.284Z,3
2018-09-01T02:25:20.177Z,3.2
2018-09-01T02:28:19.396Z,3.3
2018-09-01T02:31:19.320Z,3.3
2018-09-01T02:34:19.684Z,3.2
2018-09-01T02:37:19.436Z,3.2
2018-09-01T02:40:19.440Z,3.2
2018-09-01T02:43:19.353Z,3
2018-09-01T02:46:19.439Z,3.1
2018-09-01T02:49:19.251Z,3
2018-09-01T02:52:19.362Z,3
2018-09-01T02:55:19.691Z,3
2018-09-01T02:58:19.640Z,3.1
2018-09-01T03:01:19.699Z,3.1
2018-09-01T03:04:19.218Z,3.2
2018-09-01T03:07:19.477Z,3.2
2018-09-01T03:10:19.233Z,3.2
2018-09-01T03:13:19.197Z,3.1
2018-09-01T03:16:19.415Z,3.2
2018-09-01T03:19:19.397Z,3.2
2018-09-01T03:22:19.516Z,3.1
2018-09-01T03:25:19.436Z,3.1
2018-09-01T03:28:19.354Z,3.1
2018-09-01T03:31:19.682Z,3.2
2018-09-01T03:34:19.381Z,3.2
2018-09-01T03:37:19.690Z,3.1
2018-09-01T03:40:19.481Z,3.1
2018-09-01T03:43:19.358Z,3.4
2018-09-01T03:46:19.328Z,3.2
2018-09-01T03:49:19.343Z,3.1
2018-09-01T03:52:19.250Z,3.1
2018-09-01T03:55:19.396Z,3.1
2018-09-01T03:58:19.382Z,3.1
2018-09-01T04:01:19.357Z,3
2018-09-01T04:04:19.462Z,2.9
2018-09-01T04:07:19.537Z,3
2018-09-01T04:10:19.191Z,3.1
2018-09-01T04:13:19.606Z,3.1
2018-09-01T04:16:19.261Z,3.1
2018-09-01T04:19:19.391Z,3
2018-09-01T04:22:19.364Z,3.1
2018-09-01T04:25:19.331Z,3.1
2018-09-01T04:28:19.429Z,3
2018-09-01T04:31:19.430Z,3
2018-09-01T04:34:19.259Z,3
2018-09-01T04:37:19.326Z,3
2018-09-01T04:40:19.233Z,3
2018-09-01T04:43:19.358Z,2.9
2018-09-01T04:46:19.255Z,3
2018-09-01T04:49:19.315Z,3.1
2018-09-01T04:52:19.292Z,3
2018-09-01T04:55:19.721Z,2.9
2018-09-01T04:58:19.469Z,3
2018-09-01T05:01:20.187Z,2.9
2018-09-01T05:04:19.523Z,2.9
2018-09-01T05:07:19.563Z,3
2018-09-01T05:10:19.496Z,2.9
2018-09-01T05:13:19.505Z,2.9
2018-09-01T05:16:19.318Z,3
2018-09-01T05:19:19.334Z,2.9
2018-09-01T05:22:19.249Z,2.9
2018-09-01T05:25:19.485Z,2.9
2018-09-01T05:28:19.502Z,3
2018-09-01T05:31:19.552Z,2.9
2018-09-01T05:34:19.378Z,2.9
2018-09-01T05:37:19.420Z,2.9
2018-09-01T05:40:19.347Z,2.9
2018-09-01T05:43:19.338Z,2.9
2018-09-01T05:46:19.375Z,3.2
2018-09-01T05:49:19.339Z,3
2018-09-01T05:52:19.406Z,3
2018-09-01T05:55:19.352Z,3
2018-09-01T05:58:19.253Z,2.9
2018-09-01T06:01:19.383Z,2.8
2018-09-01T06:04:19.396Z,2.8
2018-09-01T06:07:19.355Z,2.8
2018-09-01T06:10:19.551Z,2.8
2018-09-01T06:13:19.827Z,5.8
2018-09-01T06:16:19.218Z,7.3
2018-09-01T06:19:20.963Z,9.2
2018-09-01T06:22:19.309Z,8.9
2018-09-01T06:25:19.401Z,9.6
2018-09-01T06:28:19.222Z,9.3
2018-09-01T06:31:19.295Z,10
2018-09-01T06:34:19.859Z,9.6
2018-09-01T06:37:19.500Z,10.3
2018-09-01T06:40:19.375Z,10.9
2018-09-01T06:43:19.343Z,10.5
2018-09-01T06:46:19.521Z,10.1
2018-09-01T06:49:19.425Z,10
2018-09-01T06:52:19.388Z,10.7
2018-09-01T06:55:19.288Z,9.3
2018-09-01T06:58:19.524Z,9
2018-09-01T07:01:19.315Z,8.1
2018-09-01T07:04:19.249Z,8.3
2018-09-01T07:07:19.281Z,7.9
2018-09-01T07:10:19.432Z,7.1
2018-09-01T07:13:19.157Z,6.9
2018-09-01T07:16:19.331Z,6.4
2018-09-01T07:19:19.397Z,8
2018-09-01T07:22:19.685Z,7.6
2018-09-01T07:25:19.478Z,6.6
2018-09-01T07:28:19.218Z,6.1
2018-09-01T07:31:26.382Z,5.9
2018-09-01T07:34:19.357Z,6
2018-09-01T07:37:19.419Z,5.7
2018-09-01T07:40:19.329Z,5.5
2018-09-01T07:43:19.384Z,5.4
2018-09-01T07:46:19.450Z,5.8
2018-09-01T07:49:19.375Z,5.8
2018-09-01T07:52:19.575Z,5.2
2018-09-01T07:55:19.428Z,5.3
2018-09-01T07:58:19.432Z,5.2
2018-09-01T08:01:19.575Z,4.9
2018-09-01T08:04:19.428Z,5
2018-09-01T08:07:19.990Z,4.9
2018-09-01T08:10:19.471Z,5.1
2018-09-01T08:13:19.334Z,4.8
2018-09-01T08:16:19.582Z,5.1
2018-09-01T08:19:19.476Z,4.9
2018-09-01T08:22:19.438Z,4.8
2018-09-01T08:25:19.531Z,4.3
2018-09-01T08:28:19.206Z,5.3
2018-09-01T08:31:19.631Z,4.8
2018-09-01T08:34:19.355Z,4.8
2018-09-01T08:37:19.473Z,4.3
2018-09-01T08:40:20.228Z,4.2
2018-09-01T08:43:19.868Z,4.9
2018-09-01T08:46:19.094Z,4.1
2018-09-01T08:49:19.487Z,4.6
2018-09-01T08:52:19.410Z,4.1
2018-09-01T08:55:19.455Z,3.9
2018-09-01T08:58:19.182Z,3.9
2018-09-01T09:01:19.337Z,3.6
2018-09-01T09:04:19.520Z,4.8
2018-09-01T09:07:19.339Z,4.6
2018-09-01T09:10:19.513Z,4.3
2018-09-01T09:13:19.306Z,4.1
2018-09-01T09:16:19.354Z,3.6
2018-09-01T09:19:19.202Z,4
2018-09-01T09:22:19.784Z,3.6
2018-09-01T09:25:19.258Z,4
2018-09-01T09:28:19.485Z,3.6
2018-09-01T09:31:19.244Z,3.5
2018-09-01T09:34:19.854Z,3.8
2018-09-01T09:37:19.234Z,6.2
2018-09-01T09:40:19.370Z,6.2
2018-09-01T09:43:19.210Z,6.9
2018-09-01T09:46:19.385Z,6.4
2018-09-01T09:49:19.250Z,6.3
2018-09-01T09:52:19.416Z,6.1
2018-09-01T09:55:19.366Z,8.8
2018-09-01T10:13:58.181Z,5.4
2018-09-01T10:16:57.706Z,5.4
2018-09-01T10:19:58.455Z,6.3
2018-09-01T10:25:10.273Z,8.3
2018-09-01T10:28:10.599Z,7
2018-09-01T10:31:10.441Z,7.5
2018-09-01T10:34:10.501Z,7
2018-09-01T10:37:10.323Z,7.5
2018-09-01T10:40:10.624Z,6.7
2018-09-01T10:43:10.543Z,5.8
2018-09-01T10:46:10.741Z,6.3
2018-09-01T10:49:10.303Z,6.7
2018-09-01T10:52:10.738Z,9.3
2018-09-01T10:55:10.518Z,7.9
2018-09-01T10:58:10.469Z,6.4
2018-09-01T11:01:10.364Z,5.8
2018-09-01T11:04:10.462Z,5.1
2018-09-01T11:07:10.488Z,4.9
2018-09-01T11:10:10.819Z,4.9
2018-09-01T11:13:10.365Z,7.2
2018-09-01T11:16:10.500Z,6.6
2018-09-01T11:19:10.739Z,6.5
2018-09-01T11:22:10.745Z,5.8
2018-09-01T11:25:10.682Z,5.5
2018-09-01T11:28:12.117Z,6.3
2018-09-01T11:31:10.716Z,5.6
2018-09-01T11:34:10.961Z,6
2018-09-01T11:37:10.366Z,6.3
2018-09-01T11:40:10.624Z,6.7
2018-09-01T11:43:12.925Z,8.9
2018-09-01T11:46:10.307Z,8
2018-09-01T11:49:10.794Z,9.8
2018-09-01T11:52:10.849Z,10.9
2018-09-01T11:55:10.309Z,9.4
2018-09-01T11:58:10.422Z,8.4
2018-09-01T12:01:10.539Z,8.4
2018-09-01T12:04:10.635Z,8.2
2018-09-01T12:07:10.499Z,6.3
2018-09-01T12:10:10.434Z,7.2
2018-09-01T12:13:10.505Z,7.8
2018-09-01T12:16:10.322Z,6.6
2018-09-01T12:19:10.896Z,5.3
2018-09-01T12:22:11.005Z,5.9
2018-09-01T12:25:10.401Z,5
2018-09-01T12:28:10.969Z,5.3
2018-09-01T12:31:10.380Z,6.6
2018-09-01T12:34:10.531Z,6.1
2018-09-01T12:37:10.279Z,7.6
2018-09-01T12:40:10.601Z,11.9
2018-09-01T12:43:10.319Z,10.1
2018-09-01T12:46:10.598Z,10.2
2018-09-01T12:49:10.285Z,9.4
2018-09-01T12:52:10.503Z,11
2018-09-01T12:55:10.336Z,10.1
2018-09-01T12:58:10.450Z,11.2
2018-09-01T13:01:10.446Z,14.5
2018-09-01T13:04:10.953Z,14.2
2018-09-01T13:07:10.621Z,13.2
2018-09-01T13:10:10.324Z,10.5
2018-09-01T13:13:10.629Z,10.2
2018-09-01T13:16:10.507Z,9.9
2018-09-01T13:19:11.185Z,12.6
2018-09-01T13:22:10.318Z,15.3
2018-09-01T13:25:11.006Z,14.4
2018-09-01T13:28:10.845Z,14.3
2018-09-01T13:31:10.422Z,16.3
2018-09-01T13:34:10.677Z,16.2
2018-09-01T13:37:10.789Z,15.2
2018-09-01T13:40:11.893Z,13.2
2018-09-01T13:43:10.595Z,13.8
2018-09-01T13:46:11.752Z,15.6
2018-09-01T13:49:10.448Z,13.7
2018-09-01T13:52:10.240Z,12.1
2018-09-01T13:55:10.233Z,14.8
2018-09-01T13:58:10.336Z,14.4
2018-09-01T14:01:10.298Z,12.2
2018-09-01T14:04:10.618Z,11.9
2018-09-01T14:07:10.612Z,10.8
2018-09-01T14:10:10.306Z,10.3
2018-09-01T14:13:10.604Z,10.6
2018-09-01T14:16:10.395Z,9.5
2018-09-01T14:19:10.594Z,9.1
2018-09-01T14:22:10.620Z,8.1
2018-09-01T14:25:10.357Z,6.6
2018-09-01T14:28:10.403Z,8.6
2018-09-01T14:31:10.653Z,7.6
2018-09-01T14:34:11.270Z,8.2
2018-09-01T14:37:11.031Z,7.6
2018-09-01T14:40:10.723Z,8.4
2018-09-01T14:43:10.520Z,7.8
2018-09-01T14:46:10.308Z,7
2018-09-01T14:49:10.683Z,7.2
2018-09-01T14:52:10.368Z,7.3
2018-09-01T14:55:10.288Z,7.3
2018-09-01T14:58:10.479Z,6.6
2018-09-01T15:01:10.351Z,6
2018-09-01T15:04:10.295Z,5
2018-09-01T15:07:10.341Z,5.3
2018-09-01T15:10:10.756Z,5.5
2018-09-01T15:13:10.456Z,5.4
2018-09-01T15:16:10.426Z,4.7
2018-09-01T15:19:10.364Z,4.5
2018-09-01T15:22:10.452Z,5.1
2018-09-01T15:25:10.336Z,4
2018-09-01T15:28:10.286Z,4.4
2018-09-01T15:31:10.527Z,3.9
2018-09-01T15:34:10.531Z,4.6
2018-09-01T15:37:10.188Z,5.6
2018-09-01T15:40:10.768Z,6.5
2018-09-01T15:43:10.624Z,5.6
2018-09-01T15:46:10.378Z,6.4
2018-09-01T15:49:10.271Z,6.7
2018-09-01T15:52:10.470Z,5.6
2018-09-01T15:55:10.458Z,5.8
2018-09-01T15:58:10.468Z,5.4
2018-09-01T16:01:10.393Z,5.5
2018-09-01T16:04:10.652Z,5.2
2018-09-01T16:07:10.371Z,4.5
2018-09-01T16:10:10.459Z,4.8
2018-09-01T16:13:10.377Z,4.8
2018-09-01T16:16:10.534Z,4.2
2018-09-01T18:35:09.517Z,5.3
2018-09-01T18:38:08.736Z,5.2
2018-09-01T18:43:02.234Z,5.8
2018-09-01T18:46:02.542Z,6
2018-09-01T18:49:02.559Z,6.9
2018-09-01T18:52:02.357Z,5.4
2018-09-01T18:55:02.381Z,5.1
2018-09-01T18:58:02.278Z,5
2018-09-01T19:01:02.916Z,4.6
2018-09-01T19:04:02.526Z,4.7
2018-09-01T19:07:02.496Z,4.1
2018-09-01T19:10:02.293Z,4.3
2018-09-01T19:13:02.299Z,5.6
2018-09-01T19:16:02.516Z,5.7
2018-09-01T19:19:02.417Z,4.7
2018-09-01T19:22:03.092Z,4.2
2018-09-01T19:25:02.503Z,5.4
2018-09-01T19:28:02.659Z,4.7
2018-09-01T19:31:02.229Z,3.9
2018-09-01T19:34:02.436Z,4.6
2018-09-01T19:37:02.457Z,4.5
2018-09-01T19:40:02.623Z,4
2018-09-01T19:43:02.391Z,3.8
2018-09-01T19:46:03.002Z,5
2018-09-01T19:49:02.462Z,4.1
2018-09-01T19:52:02.519Z,4.1
2018-09-01T19:57:17.760Z,6.6
2018-09-01T20:00:17.997Z,5.4
2018-09-01T20:03:17.534Z,4.6
2018-09-01T20:06:17.701Z,4.4
2018-09-01T20:09:17.870Z,6
2018-09-01T20:12:17.890Z,5.4
2018-09-01T20:15:17.684Z,5.3
2018-09-01T20:18:17.694Z,4.4
2018-09-01T20:21:17.887Z,4.9
2018-09-01T20:24:17.838Z,4.7
2018-09-01T20:27:17.516Z,4.1
2018-09-01T20:30:17.647Z,4.8
2018-09-01T20:33:17.731Z,4.8
2018-09-01T20:36:17.707Z,5.3
2018-09-01T20:39:17.693Z,4.3
2018-09-01T20:42:17.913Z,6.3
2018-09-01T20:45:17.920Z,6.3
2018-09-01T20:48:17.640Z,5.6
2018-09-01T20:51:17.896Z,5
2018-09-01T20:54:17.831Z,6.1
2018-09-01T20:57:17.660Z,4.7
2018-09-01T21:00:17.785Z,4.5
2018-09-01T21:03:18.106Z,3.6
2018-09-01T21:06:17.613Z,4.9
2018-09-01T21:09:17.673Z,4.4
2018-09-01T21:12:17.573Z,4
2018-09-01T21:15:17.714Z,3.7
2018-09-01T21:18:17.579Z,3.7
2018-09-01T21:21:17.915Z,3.4
2018-09-01T21:24:17.595Z,3.3
2018-09-01T21:27:17.668Z,3.9
2018-09-01T21:30:17.754Z,3.4
2018-09-01T21:33:17.613Z,3.5
2018-09-01T21:36:17.757Z,3.3
2018-09-01T21:39:17.624Z,3.2
2018-09-01T21:42:17.689Z,3.8
2018-09-01T21:45:17.948Z,3.5
2018-09-01T21:48:17.846Z,3.3
2018-09-01T21:51:17.631Z,3.5
2018-09-01T21:54:17.752Z,3.4
2018-09-01T21:57:17.602Z,3.4
2018-09-01T22:00:17.853Z,3
2018-09-01T22:03:17.683Z,3.1
2018-09-01T22:06:17.716Z,2.7
2018-09-01T22:09:17.874Z,3.2
2018-09-01T22:12:17.578Z,3.7
2018-09-01T22:15:17.730Z,3.2
2018-09-01T22:18:17.783Z,2.7
2018-09-01T22:21:17.720Z,3.2
2018-09-01T22:24:18.006Z,3.8
2018-09-01T22:27:17.613Z,3.1
2018-09-01T22:30:17.679Z,2.5
2018-09-01T22:33:17.745Z,2.9
2018-09-01T22:36:17.976Z,3.1
2018-09-01T22:39:17.987Z,2.8
2018-09-01T22:42:17.687Z,2.6
2018-09-01T22:45:17.626Z,2.5
2018-09-01T22:48:17.805Z,2.4
2018-09-01T22:51:17.767Z,2.3
2018-09-01T22:54:17.828Z,2.7
2018-09-01T22:57:17.693Z,2.9
2018-09-01T23:00:17.737Z,2.5
2018-09-01T23:03:17.782Z,2.5
2018-09-01T23:06:17.579Z,2.6
2018-09-01T23:09:17.838Z,2.4
2018-09-01T23:12:17.697Z,2.2
2018-09-01T23:15:17.531Z,2.5
2018-09-01T23:18:17.679Z,2.3
2018-09-01T23:21:17.935Z,2.3
2018-09-01T23:24:17.678Z,2.6
2018-09-01T23:27:17.879Z,2.9
2018-09-01T23:30:17.830Z,2.5
2018-09-01T23:33:18.237Z,2.4
2018-09-01T23:36:17.871Z,2.3
2018-09-01T23:39:17.619Z,2.1
2018-09-01T23:42:17.623Z,2.5
2018-09-01T23:45:17.891Z,2.5
2018-09-01T23:48:17.611Z,2.3
2018-09-01T23:51:17.639Z,2.6
2018-09-01T23:54:17.914Z,2.8
2018-09-01T23:57:18.007Z,2.7
